Bowen, Arkansas
Current Conditions -  °F | °C
As of 11:56 AM on Thursday 29 Jan 2015 (Local Time) from KADF Reporting Station
Few Clouds Few Clouds  
Wind Chill: 65°   Ceiling: Unl
Heat Index: 65°   Visibility: 10mi
Dew Point: 44°   Wind: 8mph
Humidity: 46%   Direction: 260°W
Pressure: 30.19"   Gusts: NA
Location:  34.0586°N, 93.5318°W
Report Text: KADF 291756Z AUTO 26007KT 10SM FEW070 18/07 A3019 RMK AO2 50015 T01830066 10183 20055 SLP235
Loading
Personal Weather Stations






























Interactive Weather Map New forecast layout! Learn more

10-Day Weather Forecast

Advertisements
Track Severe Weather on mobile